createdAt,value
2023-05-04T00:04:31.626Z,90.79
2023-05-04T00:09:34.004Z,90.93
2023-05-04T00:14:37.717Z,91.44
2023-05-04T00:19:39.824Z,91.31
2023-05-04T00:24:41.940Z,92.22
2023-05-04T00:29:45.312Z,92.30
2023-05-04T00:34:48.443Z,92.26
2023-05-04T00:39:50.352Z,92.77
2023-05-04T00:44:53.949Z,93.57
2023-05-04T00:49:56.319Z,93.51
2023-05-04T00:55:00.501Z,93.75
2023-05-04T01:00:04.812Z,94.19
2023-05-04T01:05:08.994Z,94.64
2023-05-04T01:10:14.640Z,94.50
2023-05-04T01:15:18.523Z,94.94
2023-05-04T01:20:20.608Z,94.84
2023-05-04T01:25:27.041Z,95.43
2023-05-04T01:30:32.639Z,95.30
2023-05-04T01:35:35.729Z,95.40
2023-05-04T01:40:39.238Z,95.58
2023-05-04T01:45:41.520Z,95.70
2023-05-04T01:50:43.491Z,95.66
2023-05-04T01:55:46.897Z,95.82
2023-05-04T02:00:49.034Z,95.48
2023-05-04T02:05:51.115Z,96.29
2023-05-04T02:10:54.539Z,96.15
2023-05-04T02:15:56.424Z,95.61
2023-05-04T02:20:58.477Z,94.90
2023-05-04T02:26:01.557Z,94.61
2023-05-04T02:31:03.669Z,95.31
2023-05-04T02:36:06.362Z,95.41
2023-05-04T02:41:09.712Z,95.75
2023-05-04T02:46:12.039Z,96.61
2023-05-04T02:51:14.108Z,96.44
2023-05-04T02:56:17.557Z,96.33
2023-05-04T03:01:19.611Z,96.18
2023-05-04T03:06:22.047Z,97.02
2023-05-04T03:11:25.424Z,96.91
2023-05-04T03:16:27.638Z,97.35
2023-05-04T03:21:29.381Z,97.57
2023-05-04T03:26:32.853Z,96.94
2023-05-04T03:31:35.184Z,96.66
2023-05-04T03:36:37.255Z,97.37
2023-05-04T03:41:40.937Z,97.01
2023-05-04T03:46:43.926Z,97.47
2023-05-04T03:51:46.202Z,97.65
2023-05-04T03:56:49.661Z,97.62
2023-05-04T04:01:52.130Z,97.61
2023-05-04T04:06:53.807Z,97.62
2023-05-04T04:11:56.881Z,97.19
2023-05-04T04:16:58.529Z,97.25
2023-05-04T04:22:00.207Z,96.86
2023-05-04T04:27:04.203Z,97.18
2023-05-04T04:32:06.299Z,97.18
2023-05-04T04:37:08.381Z,100.00
2023-05-04T04:42:11.862Z,100.00
2023-05-04T04:47:13.777Z,83.51
2023-05-04T04:52:16.225Z,68.80
2023-05-04T04:57:19.246Z,61.75
2023-05-04T05:02:21.514Z,55.62
2023-05-04T05:07:23.686Z,53.43
2023-05-04T05:12:27.323Z,50.90
2023-05-04T05:17:29.603Z,48.71
2023-05-04T05:22:31.815Z,50.95
2023-05-04T05:27:35.961Z,51.95
2023-05-04T05:32:38.103Z,54.20
2023-05-04T05:37:40.477Z,55.69
2023-05-04T05:42:43.556Z,51.23
2023-05-04T05:47:46.026Z,46.55
2023-05-04T05:52:48.577Z,48.28
2023-05-04T05:57:51.688Z,45.14
2023-05-04T06:02:54.359Z,45.44
2023-05-04T06:07:57.641Z,46.35
2023-05-04T06:13:01.191Z,44.99
2023-05-04T06:18:03.519Z,46.99
2023-05-04T06:23:05.331Z,39.90
2023-05-04T06:28:09.410Z,38.34
2023-05-04T06:33:11.872Z,37.40
2023-05-04T06:38:14.187Z,40.11
2023-05-04T06:43:17.820Z,45.79
2023-05-04T06:48:19.958Z,49.24
2023-05-04T06:53:21.980Z,46.99
2023-05-04T06:58:25.595Z,49.38
2023-05-04T07:03:27.720Z,50.40
2023-05-04T07:08:29.892Z,49.21
2023-05-04T07:13:33.469Z,53.71
2023-05-04T07:18:35.592Z,47.40
2023-05-04T07:23:38.114Z,49.54
2023-05-04T07:28:41.866Z,49.75
2023-05-04T07:33:44.203Z,47.84
2023-05-04T07:38:46.426Z,49.03
2023-05-04T07:43:49.991Z,48.15
2023-05-04T07:48:52.131Z,48.25
2023-05-04T07:53:53.873Z,48.67
2023-05-04T07:58:57.734Z,47.79
2023-05-04T08:04:00.054Z,45.58
2023-05-04T08:09:02.202Z,48.44
2023-05-04T08:14:05.378Z,47.58
2023-05-04T08:19:07.469Z,47.10
2023-05-04T08:24:09.648Z,44.89
2023-05-04T08:29:13.333Z,44.12
2023-05-04T08:34:15.419Z,42.82
2023-05-04T08:39:18.431Z,43.58
2023-05-04T08:44:22.464Z,43.30
2023-05-04T08:49:25.063Z,39.38
2023-05-04T08:54:27.806Z,35.81
2023-05-04T08:59:33.009Z,34.85
2023-05-04T09:04:35.468Z,31.69
2023-05-04T09:09:37.596Z,34.35
2023-05-04T09:14:41.587Z,32.71
2023-05-04T09:19:44.114Z,31.05
2023-05-04T09:24:46.795Z,28.99
2023-05-04T09:29:56.715Z,30.14
2023-05-04T09:34:58.900Z,29.54
2023-05-04T09:40:00.691Z,29.43
2023-05-04T09:45:05.848Z,29.99
2023-05-04T09:50:12.621Z,29.63
2023-05-04T09:55:16.324Z,27.28
2023-05-04T10:00:20.668Z,29.82
2023-05-04T10:05:23.016Z,30.35
2023-05-04T10:10:25.575Z,30.22
2023-05-04T10:15:29.192Z,28.94
2023-05-04T10:20:46.422Z,29.73
2023-05-04T10:26:21.239Z,30.09
2023-05-04T10:31:24.733Z,31.11
2023-05-04T10:36:35.935Z,31.68
2023-05-04T10:41:38.028Z,31.49
2023-05-04T10:46:41.532Z,28.58
2023-05-04T10:51:49.307Z,28.49
2023-05-04T10:57:02.301Z,31.08
2023-05-04T11:02:06.321Z,31.95
2023-05-04T11:07:08.604Z,33.71
2023-05-04T11:12:14.874Z,31.22
2023-05-04T11:22:23.797Z,33.64
2023-05-04T11:27:27.018Z,32.56
2023-05-04T11:32:40.791Z,34.50
2023-05-04T11:37:44.253Z,32.67
2023-05-04T11:42:46.928Z,32.92
2023-05-04T11:47:51.704Z,33.16
2023-05-04T11:53:04.068Z,31.70
2023-05-04T11:58:07.363Z,32.03
2023-05-04T12:03:13.525Z,32.34
2023-05-04T12:08:25.365Z,30.59
2023-05-04T12:13:27.484Z,30.30
2023-05-04T12:18:30.815Z,30.94
2023-05-04T12:23:32.956Z,30.52
2023-05-04T12:28:35.768Z,30.91
2023-05-04T12:33:39.485Z,30.87
2023-05-04T12:38:41.593Z,31.42
2023-05-04T12:43:43.775Z,32.46
2023-05-04T12:48:47.282Z,31.45
2023-05-04T12:53:48.981Z,30.83
2023-05-04T12:58:51.143Z,30.53
2023-05-04T13:03:54.746Z,30.46
2023-05-04T13:08:57.258Z,30.08
2023-05-04T13:13:59.357Z,30.35
2023-05-04T13:19:02.935Z,31.19
2023-05-04T13:24:05.827Z,31.25
2023-05-04T13:29:08.409Z,30.83
2023-05-04T13:34:11.870Z,30.84
2023-05-04T13:39:14.029Z,29.82
2023-05-04T13:44:15.711Z,29.31
2023-05-04T13:49:18.810Z,29.59
2023-05-04T13:54:20.929Z,29.14
2023-05-04T13:59:23.019Z,29.87
2023-05-04T14:04:27.002Z,30.62
2023-05-04T14:09:29.154Z,29.55
2023-05-04T14:14:31.174Z,28.40
2023-05-04T14:19:34.654Z,28.75
2023-05-04T14:24:36.849Z,28.30
2023-05-04T14:29:38.577Z,28.98
2023-05-04T14:34:41.948Z,27.14
2023-05-04T14:39:44.009Z,29.38
2023-05-04T14:44:46.146Z,29.74
2023-05-04T14:49:50.484Z,27.65
2023-05-04T14:54:52.819Z,27.51
2023-05-04T14:59:54.717Z,28.57
2023-05-04T15:04:58.152Z,29.46
2023-05-04T15:10:00.290Z,29.03
2023-05-04T15:15:02.458Z,27.68
2023-05-04T15:20:07.901Z,29.21
2023-05-04T15:25:10.716Z,28.65
2023-05-04T15:30:13.241Z,29.09
2023-05-04T15:35:16.623Z,30.93
2023-05-04T15:40:18.533Z,30.58
2023-05-04T15:45:21.556Z,29.91
2023-05-04T15:50:24.655Z,29.44
2023-05-04T15:55:26.973Z,29.17
2023-05-04T16:00:29.360Z,30.00
2023-05-04T16:05:32.823Z,29.54
2023-05-04T16:10:34.517Z,30.82
2023-05-04T16:15:36.242Z,30.66
2023-05-04T16:20:39.303Z,29.81
2023-05-04T16:25:42.495Z,31.88
2023-05-04T16:30:44.700Z,30.70
2023-05-04T16:35:48.192Z,29.76
2023-05-04T16:40:49.914Z,29.48
2023-05-04T16:45:52.074Z,30.16
2023-05-04T16:50:55.157Z,30.40
2023-05-04T16:55:57.353Z,31.20
2023-05-04T17:00:59.061Z,31.61
2023-05-04T17:06:03.755Z,32.70
2023-05-04T17:11:06.757Z,31.96
2023-05-04T17:16:09.552Z,32.54
2023-05-04T17:21:12.833Z,33.72
2023-05-04T17:26:14.972Z,34.68
2023-05-04T17:31:17.156Z,35.49
2023-05-04T17:36:20.931Z,35.98
2023-05-04T17:41:23.432Z,35.85
2023-05-04T17:46:25.578Z,36.97
2023-05-04T17:51:29.061Z,37.40
2023-05-04T17:56:30.885Z,36.79
2023-05-04T18:01:32.997Z,37.80
2023-05-04T18:06:36.698Z,37.64
2023-05-04T18:11:38.879Z,39.09
2023-05-04T18:16:41.339Z,41.45
2023-05-04T18:21:44.424Z,40.04
2023-05-04T18:26:46.578Z,41.00
2023-05-04T18:31:49.407Z,41.62
2023-05-04T18:36:53.341Z,42.95
2023-05-04T18:41:55.096Z,43.99
2023-05-04T18:46:57.074Z,43.95
2023-05-04T18:52:01.172Z,45.01
2023-05-04T18:57:03.344Z,46.36
2023-05-04T19:02:05.536Z,47.91
2023-05-04T19:07:09.131Z,48.57
2023-05-04T19:12:11.333Z,49.08
2023-05-04T19:17:13.428Z,48.47
2023-05-04T19:22:16.537Z,51.16
2023-05-04T19:27:19.789Z,51.07
2023-05-04T19:32:24.801Z,50.33
2023-05-04T19:37:28.641Z,49.24
2023-05-04T19:42:31.151Z,52.87
2023-05-04T19:47:33.392Z,51.88
2023-05-04T19:52:37.527Z,54.43
2023-05-04T19:57:39.833Z,53.58
2023-05-04T20:02:41.615Z,54.10
2023-05-04T20:07:45.181Z,55.02
2023-05-04T20:12:47.613Z,54.94
2023-05-04T20:17:49.892Z,52.71
2023-05-04T20:22:53.264Z,51.53
2023-05-04T20:27:55.273Z,51.11
2023-05-04T20:32:57.069Z,50.23
2023-05-04T20:38:01.424Z,49.76
2023-05-04T20:43:03.789Z,49.39
2023-05-04T20:48:06.242Z,50.47
2023-05-04T20:53:09.974Z,51.18
2023-05-04T20:58:12.035Z,51.75
2023-05-04T21:03:14.046Z,53.22
2023-05-04T21:08:17.518Z,53.10
2023-05-04T21:13:19.988Z,53.58
2023-05-04T21:18:22.499Z,53.93
2023-05-04T21:23:26.109Z,54.35
2023-05-04T21:28:28.286Z,53.48
2023-05-04T21:33:30.449Z,53.74
2023-05-04T21:38:34.276Z,53.30
2023-05-04T21:43:36.440Z,54.54
2023-05-04T21:48:39.114Z,54.70
2023-05-04T21:53:44.605Z,55.28
2023-05-04T21:58:46.731Z,56.10
2023-05-04T22:03:48.841Z,56.21
2023-05-04T22:08:52.307Z,57.43
2023-05-04T22:13:54.350Z,57.84
2023-05-04T22:18:56.506Z,59.18
2023-05-04T22:24:00.093Z,59.60
2023-05-04T22:29:02.466Z,59.39
2023-05-04T22:34:04.551Z,59.82
2023-05-04T22:39:08.234Z,61.18
2023-05-04T22:44:10.226Z,61.31
2023-05-04T22:49:12.245Z,62.53
2023-05-04T22:54:15.759Z,63.03
2023-05-04T22:59:18.254Z,63.16
2023-05-04T23:04:20.704Z,63.54
2023-05-04T23:09:24.026Z,64.23
2023-05-04T23:14:26.290Z,65.00
2023-05-04T23:19:28.929Z,64.85
2023-05-04T23:24:32.651Z,65.26
2023-05-04T23:29:34.760Z,65.54
2023-05-04T23:34:36.756Z,65.04
2023-05-04T23:39:40.420Z,65.21
2023-05-04T23:44:42.460Z,65.37
2023-05-04T23:49:44.489Z,65.80
2023-05-04T23:54:52.773Z,66.50
2023-05-04T23:59:54.943Z,66.92
